createdAt,value
2023-04-27T00:00:12.444Z,0
2023-04-27T00:01:28.734Z,0
2023-04-27T00:02:45.027Z,0
2023-04-27T00:04:01.320Z,0
2023-04-27T00:05:17.615Z,0
2023-04-27T00:06:33.912Z,0
2023-04-27T00:07:49.217Z,0
2023-04-27T00:09:05.513Z,0
2023-04-27T00:10:21.807Z,0
2023-04-27T00:11:38.102Z,0
2023-04-27T00:12:54.404Z,0
2023-04-27T00:15:27.000Z,0
2023-04-27T00:16:43.297Z,0
2023-04-27T00:17:59.580Z,0
2023-04-27T00:19:15.876Z,0
2023-04-27T00:20:32.182Z,0
2023-04-27T00:21:48.463Z,0
2023-04-27T00:23:04.771Z,0
2023-04-27T00:24:20.068Z,0
2023-04-27T00:25:36.373Z,0
2023-04-27T00:26:52.657Z,0
2023-04-27T00:28:08.954Z,0
2023-04-27T00:30:41.544Z,0
2023-04-27T00:31:57.833Z,0
2023-04-27T00:33:14.127Z,0
2023-04-27T00:34:30.434Z,0
2023-04-27T00:35:46.730Z,0
2023-04-27T00:37:03.034Z,0
2023-04-27T00:38:19.314Z,0
2023-04-27T00:39:35.607Z,0
2023-04-27T00:40:50.926Z,0
2023-04-27T00:42:07.220Z,0
2023-04-27T00:43:23.506Z,0
2023-04-27T00:44:39.797Z,0
2023-04-27T00:45:56.095Z,0
2023-04-27T00:47:12.400Z,0
2023-04-27T00:48:28.693Z,0
2023-04-27T00:49:44.981Z,0
2023-04-27T00:51:01.274Z,0
2023-04-27T00:52:17.575Z,0
2023-04-27T00:53:33.862Z,0
2023-04-27T00:54:50.169Z,0
2023-04-27T00:56:06.467Z,0
2023-04-27T00:57:21.762Z,0
2023-04-27T00:58:38.063Z,0
2023-04-27T00:59:54.369Z,0
2023-04-27T01:01:10.667Z,0
2023-04-27T01:02:26.953Z,0
2023-04-27T01:03:43.246Z,0
2023-04-27T01:04:59.538Z,0
2023-04-27T01:06:15.827Z,0
2023-04-27T01:07:32.140Z,0
2023-04-27T01:08:48.422Z,0
2023-04-27T01:10:04.725Z,0
2023-04-27T01:11:21.014Z,0
2023-04-27T01:12:37.308Z,0
2023-04-27T01:13:52.629Z,0
2023-04-27T01:15:08.908Z,0
2023-04-27T01:16:25.210Z,0
2023-04-27T01:17:41.500Z,0
2023-04-27T01:18:57.810Z,0
2023-04-27T01:21:30.383Z,0
2023-04-27T01:22:46.682Z,0
2023-04-27T01:24:02.978Z,0
2023-04-27T01:25:19.281Z,0
2023-04-27T01:26:35.578Z,0
2023-04-27T01:27:51.861Z,0
2023-04-27T01:29:08.152Z,0
2023-04-27T01:30:23.476Z,0
2023-04-27T01:31:39.774Z,0
2023-04-27T01:32:56.071Z,0
2023-04-27T01:34:12.360Z,0
2023-04-27T01:35:28.651Z,0
2023-04-27T01:36:44.946Z,0
2023-04-27T01:38:01.237Z,0
2023-04-27T01:39:17.540Z,0
2023-04-27T01:40:33.842Z,0
2023-04-27T01:41:50.125Z,0
2023-04-27T01:43:06.432Z,0
2023-04-27T01:44:22.716Z,0
2023-04-27T01:45:39.002Z,0
2023-04-27T01:46:54.315Z,0
2023-04-27T01:48:10.617Z,0
2023-04-27T01:49:26.911Z,0
2023-04-27T01:50:43.219Z,0
2023-04-27T01:51:59.504Z,0
2023-04-27T01:53:15.809Z,0
2023-04-27T01:54:32.101Z,0
2023-04-27T01:55:48.395Z,0
2023-04-27T01:57:04.682Z,0
2023-04-27T01:58:20.973Z,0
2023-04-27T01:59:37.266Z,0
2023-04-27T02:02:09.857Z,0
2023-04-27T02:03:25.170Z,0
2023-04-27T02:04:41.477Z,0
2023-04-27T02:05:57.763Z,0
2023-04-27T02:07:14.059Z,0
2023-04-27T02:08:30.353Z,0
2023-04-27T02:11:02.932Z,0
2023-04-27T02:12:18.241Z,0
2023-04-27T02:13:34.533Z,0
2023-04-27T02:14:50.833Z,0
2023-04-27T02:16:07.129Z,0
2023-04-27T02:17:23.426Z,0
2023-04-27T02:18:39.732Z,0
2023-04-27T02:19:56.010Z,0
2023-04-27T02:21:12.321Z,0
2023-04-27T02:22:28.607Z,0
2023-04-27T02:23:44.895Z,0
2023-04-27T02:25:01.201Z,0
2023-04-27T02:26:17.494Z,0
2023-04-27T02:27:33.780Z,0
2023-04-27T02:28:49.096Z,0
2023-04-27T02:30:05.402Z,0
2023-04-27T02:31:21.698Z,0
2023-04-27T02:32:37.992Z,0
2023-04-27T02:33:54.268Z,0
2023-04-27T02:35:10.581Z,0
2023-04-27T02:36:26.859Z,0
2023-04-27T02:37:43.172Z,0
2023-04-27T02:38:59.451Z,0
2023-04-27T02:40:15.746Z,0
2023-04-27T02:41:32.047Z,0
2023-04-27T02:42:48.350Z,0
2023-04-27T02:44:04.639Z,0
2023-04-27T02:45:19.939Z,0
2023-04-27T02:46:36.242Z,0
2023-04-27T02:47:52.537Z,0
2023-04-27T02:49:08.830Z,0
2023-04-27T02:50:25.122Z,0
2023-04-27T02:51:41.435Z,0
2023-04-27T02:52:57.719Z,0
2023-04-27T02:54:14.019Z,0
2023-04-27T02:55:30.316Z,0
2023-04-27T02:56:46.596Z,0
2023-04-27T02:58:02.906Z,0
2023-04-27T02:59:19.196Z,0
2023-04-27T03:00:35.499Z,0
2023-04-27T03:03:07.103Z,0
2023-04-27T03:04:23.402Z,0
2023-04-27T03:05:39.683Z,0
2023-04-27T03:06:55.973Z,0
2023-04-27T03:08:12.222Z,1
2023-04-27T03:09:28.509Z,0
2023-04-27T03:10:44.816Z,0
2023-04-27T03:12:01.058Z,1
2023-04-27T03:13:17.308Z,1
2023-04-27T03:14:33.557Z,1
2023-04-27T03:15:49.833Z,0
2023-04-27T03:17:06.089Z,2
2023-04-27T03:18:21.345Z,1
2023-04-27T03:19:37.594Z,1
2023-04-27T03:20:53.846Z,2
2023-04-27T03:22:10.090Z,2
2023-04-27T03:23:26.332Z,3
2023-04-27T03:24:42.584Z,4
2023-04-27T03:25:58.825Z,5
2023-04-27T03:27:15.056Z,2
2023-04-27T03:28:31.301Z,3
2023-04-27T03:29:47.537Z,8
2023-04-27T03:31:03.795Z,7
2023-04-27T03:33:36.264Z,11
2023-04-27T03:34:51.532Z,14
2023-04-27T03:36:07.761Z,12
2023-04-27T03:37:24.012Z,19
2023-04-27T03:38:40.249Z,21
2023-04-27T03:41:12.731Z,28
2023-04-27T03:42:28.965Z,35
2023-04-27T03:43:45.208Z,40
2023-04-27T03:45:01.445Z,49
2023-04-27T03:46:17.698Z,67
2023-04-27T03:47:33.937Z,84
2023-04-27T03:48:50.183Z,98
2023-04-27T03:50:06.410Z,110
2023-04-27T03:51:21.684Z,125
2023-04-27T03:52:37.911Z,136
2023-04-27T03:53:54.154Z,151
2023-04-27T03:56:26.631Z,176
2023-04-27T03:57:41.000Z,194
2023-04-27T03:58:57.167Z,217
2023-04-27T04:00:13.409Z,239
2023-04-27T04:01:29.635Z,268
2023-04-27T04:04:02.131Z,320
2023-04-27T04:05:18.372Z,350
2023-04-27T04:06:34.602Z,374
2023-04-27T04:07:50.853Z,403
2023-04-27T04:09:07.083Z,430
2023-04-27T04:11:39.566Z,483
2023-04-27T04:12:55.811Z,509
2023-04-27T04:14:11.076Z,539
2023-04-27T04:15:26.337Z,558
2023-04-27T04:16:42.574Z,578
2023-04-27T04:19:15.052Z,676
2023-04-27T04:20:31.303Z,734
2023-04-27T04:21:47.537Z,774
2023-04-27T04:23:03.767Z,809
2023-04-27T04:24:20.016Z,837
2023-04-27T04:25:36.268Z,858
2023-04-27T04:26:52.499Z,877
2023-04-27T04:28:08.751Z,981
2023-04-27T04:29:24.978Z,1105
2023-04-27T04:30:41.231Z,1084
2023-04-27T04:31:56.476Z,1051
2023-04-27T04:33:12.714Z,1062
2023-04-27T04:34:28.964Z,1041
2023-04-27T04:35:45.195Z,977
2023-04-27T04:37:01.437Z,983
2023-04-27T04:38:17.694Z,992
2023-04-27T04:39:33.917Z,990
2023-04-27T04:40:50.175Z,991
2023-04-27T04:42:05.424Z,1001
2023-04-27T04:43:20.691Z,1038
2023-04-27T04:44:36.933Z,1140
2023-04-27T04:45:53.173Z,1133
2023-04-27T04:47:09.400Z,1116
2023-04-27T04:48:25.647Z,1201
2023-04-27T04:49:41.900Z,1292
2023-04-27T04:50:58.138Z,1389
2023-04-27T04:52:14.371Z,1449
2023-04-27T04:53:30.618Z,1392
2023-04-27T04:54:46.859Z,1397
2023-04-27T04:56:02.115Z,1469
2023-04-27T04:57:17.370Z,1614
2023-04-27T04:58:33.614Z,1773
2023-04-27T04:59:49.864Z,1826
2023-04-27T05:01:06.092Z,1941
2023-04-27T05:02:22.345Z,2017
2023-04-27T05:03:38.569Z,2083
2023-04-27T05:04:54.822Z,2203
2023-04-27T05:06:11.071Z,2318
2023-04-27T05:07:27.292Z,2426
2023-04-27T05:08:43.536Z,2509
2023-04-27T05:09:59.793Z,2615
2023-04-27T05:11:16.023Z,2735
2023-04-27T05:12:32.270Z,2752
2023-04-27T05:13:47.532Z,2819
2023-04-27T05:15:03.764Z,2817
2023-04-27T05:16:20.007Z,2823
2023-04-27T05:17:36.250Z,2776
2023-04-27T05:18:52.476Z,2720
2023-04-27T05:20:08.728Z,2761
2023-04-27T05:21:24.973Z,2711
2023-04-27T05:22:41.207Z,2656
2023-04-27T05:23:57.451Z,2624
2023-04-27T05:25:13.681Z,2599
2023-04-27T05:26:29.928Z,2581
2023-04-27T05:27:46.162Z,2540
2023-04-27T05:30:18.654Z,2479
2023-04-27T05:31:33.900Z,2490
2023-04-27T05:32:50.144Z,2530
2023-04-27T05:34:06.389Z,2469
2023-04-27T05:35:22.628Z,2432
2023-04-27T05:36:38.869Z,2434
2023-04-27T05:37:55.116Z,2439
2023-04-27T05:39:11.360Z,2521
2023-04-27T05:40:27.597Z,2674
2023-04-27T05:43:00.079Z,2819
2023-04-27T05:44:16.311Z,2964
2023-04-27T05:45:32.565Z,3135
2023-04-27T05:46:48.793Z,3306
2023-04-27T05:48:04.062Z,3509
2023-04-27T05:49:20.299Z,3494
2023-04-27T05:50:36.526Z,3528
2023-04-27T05:51:52.769Z,3749
2023-04-27T05:53:09.025Z,3645
2023-04-27T05:54:25.262Z,3299
2023-04-27T05:55:41.492Z,3092
2023-04-27T05:56:57.732Z,3024
2023-04-27T05:58:13.982Z,2987
2023-04-27T05:59:30.210Z,2890
2023-04-27T06:00:46.465Z,2790
2023-04-27T06:02:02.693Z,2831
2023-04-27T06:03:18.943Z,2923
2023-04-27T06:05:50.439Z,3055
2023-04-27T06:07:06.678Z,3315
2023-04-27T06:08:22.928Z,3743
2023-04-27T06:09:39.160Z,3808
2023-04-27T06:10:55.408Z,3646
2023-04-27T06:12:11.648Z,4015
2023-04-27T06:13:27.889Z,4382
2023-04-27T06:14:44.119Z,4256
2023-04-27T06:16:00.369Z,4168
2023-04-27T06:17:16.611Z,4187
2023-04-27T06:18:32.851Z,4086
2023-04-27T06:19:49.097Z,3941
2023-04-27T06:21:04.337Z,3786
2023-04-27T06:22:20.588Z,3685
2023-04-27T06:23:36.833Z,3633
2023-04-27T06:24:53.055Z,3690
2023-04-27T06:26:09.311Z,3702
2023-04-27T06:27:24.563Z,3753
2023-04-27T06:28:40.819Z,3796
2023-04-27T06:29:57.049Z,3840
2023-04-27T06:31:13.283Z,4026
2023-04-27T06:32:29.532Z,4022
2023-04-27T06:33:45.780Z,4138
2023-04-27T06:35:02.006Z,4132
2023-04-27T06:36:18.257Z,3972
2023-04-27T06:37:34.500Z,3832
2023-04-27T06:38:50.737Z,3687
2023-04-27T06:40:06.965Z,3556
2023-04-27T06:41:23.209Z,3495
2023-04-27T06:42:39.465Z,3542
2023-04-27T06:43:54.717Z,3485
2023-04-27T06:45:10.952Z,3663
2023-04-27T06:46:27.195Z,3771
2023-04-27T06:47:43.441Z,3880
2023-04-27T06:48:59.686Z,4054
2023-04-27T06:50:15.916Z,4037
2023-04-27T06:51:32.157Z,4010
2023-04-27T06:52:48.396Z,4073
2023-04-27T06:54:04.630Z,4001
2023-04-27T06:55:20.882Z,3954
2023-04-27T06:56:37.116Z,3937
2023-04-27T06:57:53.350Z,3976
2023-04-27T06:59:09.590Z,3926
2023-04-27T07:00:24.859Z,3745
2023-04-27T07:01:41.091Z,3620
2023-04-27T07:02:57.333Z,3648
2023-04-27T07:04:13.567Z,3826
2023-04-27T07:05:29.818Z,3845
2023-04-27T07:06:46.060Z,3794
2023-04-27T07:08:02.300Z,3634
2023-04-27T07:09:18.536Z,3799
2023-04-27T07:10:34.775Z,3935
2023-04-27T07:11:51.016Z,3671
2023-04-27T07:13:07.269Z,4164
2023-04-27T07:14:23.501Z,4578
2023-04-27T07:15:39.740Z,4750
2023-04-27T07:16:55.002Z,4794
2023-04-27T07:18:11.235Z,5137
2023-04-27T07:19:27.470Z,5684
2023-04-27T07:20:43.717Z,5968
2023-04-27T07:21:59.961Z,5810
2023-04-27T07:23:16.197Z,5609
2023-04-27T07:24:32.435Z,5506
2023-04-27T07:25:48.676Z,5546
2023-04-27T07:27:04.926Z,5989
2023-04-27T07:28:21.174Z,5964
2023-04-27T07:29:37.399Z,5253
2023-04-27T07:30:53.640Z,4518
2023-04-27T07:32:09.890Z,5359
2023-04-27T07:33:25.142Z,6556
2023-04-27T07:34:41.394Z,6791
2023-04-27T07:35:57.615Z,6216
2023-04-27T07:37:13.865Z,5991
2023-04-27T07:38:30.111Z,6369
2023-04-27T07:39:46.349Z,6730
2023-04-27T07:41:02.583Z,6662
2023-04-27T07:42:18.816Z,6442
2023-04-27T07:43:35.066Z,6547
2023-04-27T07:44:51.305Z,6625
2023-04-27T07:46:07.553Z,6495
2023-04-27T07:47:23.778Z,6566
2023-04-27T07:48:40.027Z,6690
2023-04-27T07:49:55.277Z,6487
2023-04-27T07:52:27.770Z,6629
2023-04-27T07:53:44.003Z,6715
2023-04-27T07:55:00.242Z,6499
2023-04-27T07:56:16.484Z,6338
2023-04-27T07:57:32.727Z,6659
2023-04-27T08:00:05.203Z,6586
2023-04-27T08:01:21.448Z,6335
2023-04-27T08:02:37.673Z,6347
2023-04-27T08:03:53.932Z,6396
2023-04-27T08:05:10.153Z,6445
2023-04-27T08:06:25.411Z,6518
2023-04-27T08:07:41.655Z,6674
2023-04-27T08:08:57.901Z,6787
2023-04-27T08:10:14.136Z,6666
2023-04-27T08:11:30.375Z,7387
2023-04-27T08:12:46.621Z,7297
2023-04-27T08:14:02.859Z,7236
2023-04-27T08:15:19.106Z,6987
2023-04-27T08:16:35.334Z,6907
2023-04-27T08:17:51.574Z,6597
2023-04-27T08:19:07.809Z,6225
2023-04-27T08:20:24.057Z,5951
2023-04-27T08:21:40.299Z,5937
2023-04-27T08:22:56.542Z,6050
2023-04-27T08:24:11.784Z,6043
2023-04-27T08:25:28.041Z,5591
2023-04-27T08:26:44.274Z,5868
2023-04-27T08:28:00.506Z,5728
2023-04-27T08:30:32.988Z,5689
2023-04-27T08:31:49.234Z,5715
2023-04-27T08:33:05.467Z,5507
2023-04-27T08:34:21.706Z,5845
2023-04-27T08:35:37.947Z,5483
2023-04-27T08:38:10.430Z,5785
2023-04-27T08:39:26.667Z,5466
2023-04-27T08:40:41.925Z,5232
2023-04-27T08:41:58.179Z,5511
2023-04-27T08:43:14.406Z,5170
2023-04-27T08:45:46.899Z,4572
2023-04-27T08:47:03.140Z,4606
2023-04-27T08:48:18.396Z,4919
2023-04-27T08:49:33.638Z,5243
2023-04-27T08:50:49.890Z,4733
2023-04-27T08:52:06.127Z,5107
2023-04-27T08:53:22.377Z,5030
2023-04-27T08:54:38.612Z,4628
2023-04-27T08:55:54.852Z,4788
2023-04-27T08:57:11.089Z,4958
2023-04-27T08:58:27.329Z,5063
2023-04-27T09:00:59.808Z,5624
2023-04-27T09:02:16.048Z,4938
2023-04-27T09:03:32.282Z,5163
2023-04-27T09:04:48.535Z,4617
2023-04-27T09:06:03.782Z,5098
2023-04-27T09:08:36.257Z,5251
2023-04-27T09:09:51.527Z,4714
2023-04-27T09:11:06.790Z,4651
2023-04-27T09:12:23.027Z,4674
2023-04-27T09:13:39.257Z,4742
2023-04-27T09:14:55.495Z,4944
2023-04-27T09:16:11.732Z,5155
2023-04-27T09:17:27.975Z,5161
2023-04-27T09:18:44.231Z,5003
2023-04-27T09:20:00.463Z,4718
2023-04-27T09:21:16.702Z,4718
2023-04-27T09:22:32.944Z,5090
2023-04-27T09:23:48.203Z,5801
2023-04-27T09:25:04.434Z,4757
2023-04-27T09:26:19.700Z,5059
2023-04-27T09:27:35.940Z,5092
2023-04-27T09:28:52.180Z,4808
2023-04-27T09:30:08.425Z,5638
2023-04-27T09:31:24.000Z,6406
2023-04-27T09:32:40.901Z,7535
2023-04-27T09:33:57.148Z,6123
2023-04-27T09:35:13.375Z,5824
2023-04-27T09:36:29.609Z,4958
2023-04-27T09:37:44.889Z,5403
2023-04-27T09:39:00.126Z,5807
2023-04-27T09:40:16.377Z,6754
2023-04-27T09:41:32.628Z,6545
2023-04-27T09:42:48.854Z,6529
2023-04-27T09:44:05.103Z,7008
2023-04-27T09:45:21.347Z,6046
2023-04-27T09:46:37.583Z,5589
2023-04-27T09:47:53.814Z,5677
2023-04-27T09:49:10.053Z,5299
2023-04-27T09:50:26.301Z,5450
2023-04-27T09:51:42.541Z,6014
2023-04-27T09:54:15.016Z,6223
2023-04-27T09:55:30.278Z,6436
2023-04-27T09:56:46.514Z,7056
2023-04-27T09:58:02.752Z,6919
2023-04-27T09:59:18.990Z,6565
2023-04-27T10:00:35.233Z,7248
2023-04-27T10:01:51.468Z,7531
2023-04-27T10:03:07.708Z,7509
2023-04-27T10:04:23.957Z,7340
2023-04-27T10:05:40.198Z,7260
2023-04-27T10:06:56.432Z,7662
2023-04-27T10:08:12.666Z,7782
2023-04-27T10:09:28.909Z,7583
2023-04-27T10:10:45.147Z,7566
2023-04-27T10:12:00.401Z,7379
2023-04-27T10:13:16.651Z,7131
2023-04-27T10:14:32.889Z,6897
2023-04-27T10:17:05.375Z,6523
2023-04-27T10:18:21.609Z,7322
2023-04-27T10:19:37.837Z,6607
2023-04-27T10:20:54.098Z,7240
2023-04-27T10:22:10.338Z,7181
2023-04-27T10:23:26.577Z,7292
2023-04-27T10:24:42.798Z,7494
2023-04-27T10:25:59.055Z,7682
2023-04-27T10:27:15.292Z,7696
2023-04-27T10:28:30.542Z,7758
2023-04-27T10:29:46.790Z,7216
2023-04-27T10:32:19.269Z,6712
2023-04-27T10:33:35.504Z,6403
2023-04-27T10:34:51.754Z,6333
2023-04-27T10:36:07.985Z,6213
2023-04-27T10:37:24.227Z,6211
2023-04-27T10:38:40.467Z,6362
2023-04-27T10:39:56.715Z,6463
2023-04-27T10:41:12.950Z,6386
2023-04-27T10:42:29.319Z,5881
2023-04-27T10:43:45.541Z,6049
2023-04-27T10:45:01.790Z,6309
2023-04-27T10:46:18.032Z,6301
2023-04-27T10:47:34.265Z,6432
2023-04-27T10:48:50.515Z,6334
2023-04-27T10:50:06.752Z,6192
2023-04-27T10:51:22.994Z,6146
2023-04-27T10:52:39.230Z,6408
2023-04-27T10:55:11.707Z,7364
2023-04-27T10:56:27.958Z,7851
2023-04-27T10:57:44.188Z,8133
2023-04-27T10:59:00.432Z,8093
2023-04-27T11:00:15.682Z,8196
2023-04-27T11:01:31.932Z,8645
2023-04-27T11:02:48.171Z,8832
2023-04-27T11:04:04.409Z,8122
2023-04-27T11:05:20.640Z,8232
2023-04-27T11:06:36.893Z,7813
2023-04-27T11:07:53.118Z,7032
2023-04-27T11:09:09.369Z,6173
2023-04-27T11:10:25.606Z,5616
2023-04-27T11:11:41.833Z,5331
2023-04-27T11:12:58.083Z,5089
2023-04-27T11:14:14.328Z,4921
2023-04-27T11:15:30.562Z,5318
2023-04-27T11:16:45.818Z,5399
2023-04-27T11:18:02.068Z,5797
2023-04-27T11:19:18.298Z,5985
2023-04-27T11:20:34.534Z,6122
2023-04-27T11:21:50.792Z,6259
2023-04-27T11:23:07.009Z,6484
2023-04-27T11:24:23.263Z,6793
2023-04-27T11:25:39.500Z,7133
2023-04-27T11:26:55.736Z,7452
2023-04-27T11:28:11.982Z,7146
2023-04-27T11:29:28.211Z,6484
2023-04-27T11:30:44.458Z,5893
2023-04-27T11:32:00.689Z,6548
2023-04-27T11:33:15.958Z,6513
2023-04-27T11:34:32.205Z,6780
2023-04-27T11:35:48.426Z,6874
2023-04-27T11:37:04.675Z,7070
2023-04-27T11:38:20.917Z,7011
2023-04-27T11:39:37.163Z,7079
2023-04-27T11:40:53.395Z,7150
2023-04-27T11:42:09.627Z,6896
2023-04-27T11:43:25.880Z,6494
2023-04-27T11:44:42.107Z,6530
2023-04-27T11:45:58.350Z,6797
2023-04-27T11:48:30.843Z,7318
2023-04-27T11:49:47.196Z,7083
2023-04-27T11:51:03.430Z,7567
2023-04-27T11:52:19.681Z,8084
2023-04-27T11:53:35.904Z,8301
2023-04-27T11:54:52.149Z,8004
2023-04-27T11:56:08.400Z,7739
2023-04-27T11:57:24.633Z,7665
2023-04-27T11:58:40.882Z,7128
2023-04-27T11:59:57.120Z,6563
2023-04-27T12:01:13.344Z,6149
2023-04-27T12:02:29.603Z,6241
2023-04-27T12:03:45.838Z,5572
2023-04-27T12:05:02.068Z,5278
2023-04-27T12:06:17.322Z,5456
2023-04-27T12:07:33.572Z,4899
2023-04-27T12:08:49.819Z,4549
2023-04-27T12:11:22.282Z,4956
2023-04-27T12:12:38.537Z,5338
2023-04-27T12:13:54.766Z,5565
2023-04-27T12:15:11.009Z,6240
2023-04-27T12:16:27.254Z,6554
2023-04-27T12:18:59.730Z,6796
2023-04-27T12:20:15.977Z,6658
2023-04-27T12:21:32.200Z,6296
2023-04-27T12:22:47.459Z,5706
2023-04-27T12:24:03.710Z,5662
2023-04-27T12:25:19.947Z,6052
2023-04-27T12:26:36.187Z,6608
2023-04-27T12:27:52.428Z,5487
2023-04-27T12:29:08.676Z,6227
2023-04-27T12:30:24.898Z,6588
2023-04-27T12:31:41.150Z,7325
2023-04-27T12:32:57.385Z,7780
2023-04-27T12:34:13.630Z,7311
2023-04-27T12:36:46.108Z,6973
2023-04-27T12:38:01.363Z,7003
2023-04-27T12:39:16.630Z,7349
2023-04-27T12:40:32.859Z,7709
2023-04-27T12:41:49.099Z,7237
2023-04-27T12:43:05.348Z,6964
2023-04-27T12:44:21.582Z,6626
2023-04-27T12:45:37.822Z,6469
2023-04-27T12:46:54.058Z,6951
2023-04-27T12:48:10.293Z,7328
2023-04-27T12:49:26.551Z,7296
2023-04-27T12:50:42.790Z,7643
2023-04-27T12:51:58.052Z,7981
2023-04-27T12:53:13.307Z,8247
2023-04-27T12:54:29.544Z,8372
2023-04-27T12:55:45.787Z,8221
2023-04-27T12:57:02.022Z,7974
2023-04-27T12:58:18.256Z,8030
2023-04-27T12:59:34.499Z,8053
2023-04-27T13:00:50.747Z,8279
2023-04-27T13:02:06.989Z,8451
2023-04-27T13:04:39.454Z,9352
2023-04-27T13:05:55.697Z,8821
2023-04-27T13:07:11.937Z,8500
2023-04-27T13:08:28.180Z,7831
2023-04-27T13:09:43.438Z,7998
2023-04-27T13:10:59.682Z,7288
2023-04-27T13:12:15.914Z,6915
2023-04-27T13:13:32.155Z,6517
2023-04-27T13:14:48.398Z,6233
2023-04-27T13:16:04.628Z,6010
2023-04-27T13:17:20.872Z,5784
2023-04-27T13:19:53.348Z,5799
2023-04-27T13:22:25.828Z,5182
2023-04-27T13:23:41.094Z,4937
2023-04-27T13:24:56.343Z,5502
2023-04-27T13:26:12.589Z,5146
2023-04-27T13:27:28.837Z,5048
2023-04-27T13:28:45.074Z,5411
2023-04-27T13:30:01.320Z,5730
2023-04-27T13:31:17.552Z,5979
2023-04-27T13:32:33.782Z,6218
2023-04-27T13:33:50.019Z,7338
2023-04-27T13:35:06.267Z,6987
2023-04-27T13:37:38.744Z,6741
2023-04-27T13:38:54.980Z,6773
2023-04-27T13:40:11.241Z,6185
2023-04-27T13:42:42.722Z,5405
2023-04-27T13:43:57.988Z,5468
2023-04-27T13:45:13.239Z,5463
2023-04-27T13:46:29.485Z,5066
2023-04-27T13:47:45.715Z,5366
2023-04-27T13:49:01.955Z,6170
2023-04-27T13:50:18.206Z,5592
2023-04-27T13:51:34.449Z,6146
2023-04-27T13:52:50.674Z,5846
2023-04-27T13:54:06.925Z,6121
2023-04-27T13:55:23.154Z,6087
2023-04-27T13:56:39.409Z,6074
2023-04-27T13:57:54.665Z,5354
2023-04-27T13:59:09.919Z,5755
2023-04-27T14:00:26.151Z,6181
2023-04-27T14:01:42.407Z,5512
2023-04-27T14:02:58.638Z,5322
2023-04-27T14:05:31.127Z,6112
2023-04-27T14:06:47.352Z,6329
2023-04-27T14:08:03.610Z,6489
2023-04-27T14:09:19.844Z,6440
2023-04-27T14:10:36.080Z,5624
2023-04-27T14:11:52.320Z,6288
2023-04-27T14:13:08.569Z,6444
2023-04-27T14:14:24.800Z,5908
2023-04-27T14:15:40.051Z,6850
2023-04-27T14:16:56.289Z,6578
2023-04-27T14:18:12.529Z,6704
2023-04-27T14:19:28.769Z,6268
2023-04-27T14:20:45.015Z,6631
2023-04-27T14:22:01.265Z,6959
2023-04-27T14:23:17.502Z,6860
2023-04-27T14:24:33.725Z,5993
2023-04-27T14:25:48.989Z,6254
2023-04-27T14:27:04.256Z,6047
2023-04-27T14:28:20.489Z,6597
2023-04-27T14:29:36.726Z,7057
2023-04-27T14:30:52.973Z,6991
2023-04-27T14:32:09.205Z,6520
2023-04-27T14:33:25.459Z,6057
2023-04-27T14:34:41.693Z,5653
2023-04-27T14:35:57.933Z,5493
2023-04-27T14:37:14.183Z,5154
2023-04-27T14:38:30.417Z,4725
2023-04-27T14:39:46.646Z,4447
2023-04-27T14:41:02.887Z,4490
2023-04-27T14:42:19.122Z,4606
2023-04-27T14:43:35.491Z,4557
2023-04-27T14:44:51.740Z,4444
2023-04-27T14:46:07.973Z,4403
2023-04-27T14:47:24.215Z,4463
2023-04-27T14:49:56.695Z,4779
2023-04-27T14:51:12.925Z,5017
2023-04-27T14:52:29.172Z,5109
2023-04-27T14:53:45.411Z,4888
2023-04-27T14:56:17.897Z,4331
2023-04-27T14:58:49.394Z,4212
2023-04-27T15:00:04.659Z,4084
2023-04-27T15:01:19.930Z,4037
2023-04-27T15:02:36.160Z,4012
2023-04-27T15:03:52.392Z,4503
2023-04-27T15:06:24.876Z,4766
2023-04-27T15:07:41.119Z,4862
2023-04-27T15:08:57.371Z,4855
2023-04-27T15:10:13.596Z,4717
2023-04-27T15:11:29.847Z,4502
2023-04-27T15:14:02.314Z,4648
2023-04-27T15:15:18.571Z,4423
2023-04-27T15:16:33.828Z,4267
2023-04-27T15:17:49.081Z,4424
2023-04-27T15:19:05.326Z,4542
2023-04-27T15:21:37.800Z,4663
2023-04-27T15:22:54.035Z,4828
2023-04-27T15:24:10.275Z,4737
2023-04-27T15:25:26.516Z,4911
2023-04-27T15:26:42.758Z,4994
2023-04-27T15:27:59.004Z,4947
2023-04-27T15:29:15.238Z,4938
2023-04-27T15:30:31.482Z,4890
2023-04-27T15:31:47.719Z,4797
2023-04-27T15:33:03.951Z,4724
2023-04-27T15:34:19.224Z,4928
2023-04-27T15:35:35.456Z,4949
2023-04-27T15:36:51.687Z,5098
2023-04-27T15:38:07.927Z,5243
2023-04-27T15:39:24.172Z,5360
2023-04-27T15:40:40.414Z,5475
2023-04-27T15:41:56.664Z,5328
2023-04-27T15:43:12.899Z,5249
2023-04-27T15:44:28.149Z,5236
2023-04-27T15:45:43.420Z,5142
2023-04-27T15:46:59.643Z,5049
2023-04-27T15:48:15.898Z,4831
2023-04-27T15:49:32.133Z,4839
2023-04-27T15:50:48.371Z,5036
2023-04-27T15:52:04.611Z,4957
2023-04-27T15:53:20.843Z,4982
2023-04-27T15:54:37.095Z,4897
2023-04-27T15:55:53.324Z,4842
2023-04-27T15:57:09.575Z,4817
2023-04-27T15:58:24.838Z,4711
2023-04-27T15:59:40.085Z,4667
2023-04-27T16:00:56.322Z,4603
2023-04-27T16:02:12.556Z,4542
2023-04-27T16:03:28.804Z,4517
2023-04-27T16:04:45.043Z,4517
2023-04-27T16:07:17.526Z,3249
2023-04-27T16:08:33.762Z,5607
2023-04-27T16:09:50.009Z,5681
2023-04-27T16:11:06.243Z,4193
2023-04-27T16:12:22.494Z,3930
2023-04-27T16:13:38.733Z,2114
2023-04-27T16:14:54.971Z,3890
2023-04-27T16:16:10.214Z,6276
2023-04-27T16:17:26.470Z,7065
2023-04-27T16:18:42.703Z,6888
2023-04-27T16:19:58.945Z,4392
2023-04-27T16:22:31.414Z,6324
2023-04-27T16:23:46.676Z,6441
2023-04-27T16:25:01.938Z,4946
2023-04-27T16:26:18.184Z,5955
2023-04-27T16:27:34.429Z,5844
2023-04-27T16:28:50.652Z,5422
2023-04-27T16:30:06.906Z,6123
2023-04-27T16:31:23.147Z,7133
2023-04-27T16:32:39.385Z,5333
2023-04-27T16:33:55.621Z,1949
2023-04-27T16:35:11.852Z,5864
2023-04-27T16:37:44.335Z,6197
2023-04-27T16:39:00.574Z,3322
2023-04-27T16:40:16.815Z,4164
2023-04-27T16:41:32.077Z,5168
2023-04-27T16:42:48.312Z,5137
2023-04-27T16:44:04.564Z,4803
2023-04-27T16:45:20.802Z,5103
2023-04-27T16:46:37.044Z,5015
2023-04-27T16:47:53.275Z,5170
2023-04-27T16:49:09.524Z,5089
2023-04-27T16:50:25.754Z,4798
2023-04-27T16:51:41.012Z,4723
2023-04-27T16:52:56.268Z,4559
2023-04-27T16:54:12.502Z,4673
2023-04-27T16:56:45.000Z,4594
2023-04-27T16:58:01.235Z,3702
2023-04-27T17:01:49.958Z,3748
2023-04-27T17:03:06.200Z,3916
2023-04-27T17:04:22.430Z,4939
2023-04-27T17:05:38.669Z,2210
2023-04-27T17:08:11.141Z,4119
2023-04-27T17:09:26.412Z,2326
2023-04-27T17:10:41.666Z,3262
2023-04-27T17:13:13.166Z,2781
2023-04-27T17:14:29.408Z,2576
2023-04-27T17:15:45.653Z,2820
2023-04-27T17:17:01.894Z,2679
2023-04-27T17:18:18.120Z,2597
2023-04-27T17:19:34.371Z,2588
2023-04-27T17:20:50.602Z,2589
2023-04-27T17:23:23.086Z,2298
2023-04-27T17:24:39.334Z,1831
2023-04-27T17:25:55.573Z,1549
2023-04-27T17:27:11.807Z,1449
2023-04-27T17:28:27.057Z,1372
2023-04-27T17:29:43.297Z,1271
2023-04-27T17:30:59.546Z,1348
2023-04-27T17:32:15.774Z,1392
2023-04-27T17:33:32.022Z,1363
2023-04-27T17:34:48.251Z,1294
2023-04-27T17:36:04.512Z,1189
2023-04-27T17:38:36.988Z,1032
2023-04-27T17:39:53.231Z,980
2023-04-27T17:41:09.461Z,919
2023-04-27T17:42:25.712Z,871
2023-04-27T17:43:41.949Z,835
2023-04-27T17:44:57.202Z,808
2023-04-27T17:46:13.428Z,773
2023-04-27T17:47:29.687Z,693
2023-04-27T17:48:45.914Z,685
2023-04-27T17:50:01.188Z,679
2023-04-27T17:51:16.439Z,677
2023-04-27T17:53:48.921Z,755
2023-04-27T17:55:05.146Z,746
2023-04-27T17:56:21.393Z,738
2023-04-27T17:57:37.630Z,723
2023-04-27T17:58:53.875Z,711
2023-04-27T18:00:10.105Z,669
2023-04-27T18:01:26.356Z,632
2023-04-27T18:02:42.585Z,588
2023-04-27T18:03:58.833Z,543
2023-04-27T18:05:15.068Z,502
2023-04-27T18:06:31.316Z,463
2023-04-27T18:09:02.815Z,403
2023-04-27T18:10:18.074Z,385
2023-04-27T18:11:33.336Z,367
2023-04-27T18:12:49.576Z,346
2023-04-27T18:14:05.810Z,322
2023-04-27T18:15:22.042Z,305
2023-04-27T18:16:38.280Z,280
2023-04-27T18:17:54.523Z,250
2023-04-27T18:19:10.767Z,221
2023-04-27T18:20:27.010Z,199
2023-04-27T18:21:43.256Z,180
2023-04-27T18:22:59.485Z,162
2023-04-27T18:24:15.721Z,145
2023-04-27T18:25:31.002Z,136